Mount Airy, Georgia
Current Conditions -  °F | °C
As of 10:35 PM on Monday 22 Dec 2014 (Local Time) from KTOC Reporting Station
Moderate Rain Moderate Rain  
Wind Chill: 38°   Ceiling: 400
Heat Index: 42°   Visibility: 5mi
Dew Point: 41°   Wind: 6mph
Humidity: 98%   Direction: 60°ENE
Pressure: 29.98"   Gusts: NA
Location:  34.52°N, 83.5°W
Report Text: KTOC 230335Z AUTO 06005KT 5SM RA BKN004 OVC007 06/05 A2998 RMK AO2 T00550052
Loading
Personal Weather Stations






























Interactive Weather Map New forecast layout! Learn more

10-Day Weather Forecast

Advertisements
Track Severe Weather on mobile